KFEP/FEP METAR and TAF weather

Enter ICAO airport designator
Station Type Date Time Source
KFEP METAR 2021/09/25 12:10 UTC NOAA

KFEP 251210Z AUTO 25005KT 10SM CLR 09/07 A3004 RMK AO2 T00900073


Station Type Date Time Source
KFEP Decoded METAR 2021/09/25 12:10 UTC NOAA

Freeport, Albertus Airport, IL, United States (KFEP) 42-14-47N 089-34-56W
Sep 25, 2021 - 08:10 AM EDT / 2021.09.25 1210 UTC
Wind: from the WSW (250 degrees) at 6 MPH (5 KT):0
Visibility: 10 mile(s):0
Sky conditions: clear
Temperature: 48.2 F (9.0 C)
Dew Point: 45.1 F (7.3 C)
Relative Humidity: 89%
Pressure (altimeter): 30.04 in. Hg (1017 hPa)
ob: KFEP 251210Z AUTO 25005KT 10SM CLR 09/07 A3004 RMK AO2 T00900073
cycle: 12

Station Type Date Time Source
KFEP TAF UTC NOAA

Error!

Example: see airport list